sensor_id;sensor_type;location;lat;lon;timestamp;pressure;altitude;pressure_sealevel;temperature;humidity
75312;BME280;63906;55.686;37.532;2023-02-15T00:01:56;99802.34;;;-0.72;67.79
75312;BME280;63906;55.686;37.532;2023-02-15T00:06:58;99823.41;;;-0.66;67.34
75312;BME280;63906;55.686;37.532;2023-02-15T00:12:05;99817.25;;;-0.76;68.30
75312;BME280;63906;55.686;37.532;2023-02-15T00:17:11;99808.31;;;-0.83;68.14
75312;BME280;63906;55.686;37.532;2023-02-15T00:22:11;99823.59;;;-0.80;67.96
75312;BME280;63906;55.686;37.532;2023-02-15T00:27:12;99783.84;;;-0.90;68.23
75312;BME280;63906;55.686;37.532;2023-02-15T00:32:12;99811.47;;;-0.91;69.65
75312;BME280;63906;55.686;37.532;2023-02-15T00:37:13;99796.81;;;-0.79;69.73
75312;BME280;63906;55.686;37.532;2023-02-15T00:42:13;99802.94;;;-0.80;69.19
75312;BME280;63906;55.686;37.532;2023-02-15T00:47:14;99822.41;;;-0.76;69.71
75312;BME280;63906;55.686;37.532;2023-02-15T00:52:14;99828.81;;;-0.58;67.48
75312;BME280;63906;55.686;37.532;2023-02-15T00:57:15;99836.06;;;-0.74;68.81
75312;BME280;63906;55.686;37.532;2023-02-15T01:02:16;99817.69;;;-0.82;68.65
75312;BME280;63906;55.686;37.532;2023-02-15T01:07:16;99833.56;;;-0.75;67.65
75312;BME280;63906;55.686;37.532;2023-02-15T01:12:17;99823.59;;;-0.69;67.12
75312;BME280;63906;55.686;37.532;2023-02-15T01:17:18;99822.88;;;-0.82;67.88
75312;BME280;63906;55.686;37.532;2023-02-15T01:22:19;99834.41;;;-0.75;67.72
75312;BME280;63906;55.686;37.532;2023-02-15T01:27:19;99826.63;;;-0.86;67.63
75312;BME280;63906;55.686;37.532;2023-02-15T01:32:20;99841.06;;;-0.84;67.53
75312;BME280;63906;55.686;37.532;2023-02-15T01:37:20;99839.44;;;-0.85;66.82
75312;BME280;63906;55.686;37.532;2023-02-15T01:42:22;99831.88;;;-0.99;67.86
75312;BME280;63906;55.686;37.532;2023-02-15T01:52:35;99852.19;;;-0.94;67.89
75312;BME280;63906;55.686;37.532;2023-02-15T01:57:37;99852.91;;;-0.92;67.86
75312;BME280;63906;55.686;37.532;2023-02-15T02:02:38;99837.84;;;-0.98;67.15
75312;BME280;63906;55.686;37.532;2023-02-15T02:07:43;99859.16;;;-1.08;67.22
75312;BME280;63906;55.686;37.532;2023-02-15T02:12:46;99868.41;;;-0.92;67.85
75312;BME280;63906;55.686;37.532;2023-02-15T02:18:07;99866.59;;;-1.03;68.06
75312;BME280;63906;55.686;37.532;2023-02-15T02:34:43;99868.03;;;-0.99;65.74
75312;BME280;63906;55.686;37.532;2023-02-15T02:40:16;99875.78;;;-0.99;64.31
75312;BME280;63906;55.686;37.532;2023-02-15T02:45:29;99851.59;;;-1.22;64.64
75312;BME280;63906;55.686;37.532;2023-02-15T02:50:32;99886.44;;;-1.03;64.07
75312;BME280;63906;55.686;37.532;2023-02-15T02:55:38;99881.72;;;-1.10;64.19
75312;BME280;63906;55.686;37.532;2023-02-15T03:01:03;99878.78;;;-1.29;65.60
75312;BME280;63906;55.686;37.532;2023-02-15T03:11:38;99887.84;;;-1.23;65.16
75312;BME280;63906;55.686;37.532;2023-02-15T03:16:40;99889.22;;;-1.30;65.54
75312;BME280;63906;55.686;37.532;2023-02-15T03:21:43;99905.38;;;-1.16;64.55
75312;BME280;63906;55.686;37.532;2023-02-15T03:26:50;99892.09;;;-1.22;65.24
75312;BME280;63906;55.686;37.532;2023-02-15T03:31:57;99871.69;;;-1.51;66.43
75312;BME280;63906;55.686;37.532;2023-02-15T03:37:20;99866.00;;;-1.43;63.98
75312;BME280;63906;55.686;37.532;2023-02-15T03:42:32;99898.69;;;-1.31;64.55
75312;BME280;63906;55.686;37.532;2023-02-15T03:47:39;99899.31;;;-1.27;64.85
75312;BME280;63906;55.686;37.532;2023-02-15T03:52:42;99873.34;;;-1.50;64.45
75312;BME280;63906;55.686;37.532;2023-02-15T03:57:43;99918.56;;;-1.44;64.59
75312;BME280;63906;55.686;37.532;2023-02-15T04:08:07;99913.25;;;-1.67;64.73
75312;BME280;63906;55.686;37.532;2023-02-15T04:13:07;99912.00;;;-1.74;64.88
75312;BME280;63906;55.686;37.532;2023-02-15T04:18:08;99907.69;;;-1.86;64.94
75312;BME280;63906;55.686;37.532;2023-02-15T04:23:08;99898.19;;;-1.98;64.98
75312;BME280;63906;55.686;37.532;2023-02-15T04:28:27;99909.31;;;-1.85;65.59
75312;BME280;63906;55.686;37.532;2023-02-15T04:33:28;99916.00;;;-1.70;63.77
75312;BME280;63906;55.686;37.532;2023-02-15T04:38:29;99923.88;;;-1.84;65.09
75312;BME280;63906;55.686;37.532;2023-02-15T04:43:29;99906.41;;;-1.93;64.24
75312;BME280;63906;55.686;37.532;2023-02-15T04:48:30;99880.44;;;-2.15;64.91
75312;BME280;63906;55.686;37.532;2023-02-15T04:53:30;99896.44;;;-1.85;63.34
75312;BME280;63906;55.686;37.532;2023-02-15T04:58:31;99892.63;;;-1.92;63.13
75312;BME280;63906;55.686;37.532;2023-02-15T05:03:32;99917.59;;;-1.80;63.27
75312;BME280;63906;55.686;37.532;2023-02-15T05:08:32;99909.75;;;-1.91;62.33
75312;BME280;63906;55.686;37.532;2023-02-15T05:13:33;99927.69;;;-1.90;63.43
75312;BME280;63906;55.686;37.532;2023-02-15T05:18:33;99916.44;;;-2.01;62.41
75312;BME280;63906;55.686;37.532;2023-02-15T05:23:34;99919.63;;;-2.10;63.14
75312;BME280;63906;55.686;37.532;2023-02-15T05:28:36;99941.81;;;-2.08;63.49
75312;BME280;63906;55.686;37.532;2023-02-15T05:33:38;99956.38;;;-1.94;62.62
75312;BME280;63906;55.686;37.532;2023-02-15T05:38:39;99951.59;;;-2.00;63.70
75312;BME280;63906;55.686;37.532;2023-02-15T05:43:40;99932.94;;;-2.17;63.25
75312;BME280;63906;55.686;37.532;2023-02-15T05:48:40;99956.47;;;-1.83;62.06
75312;BME280;63906;55.686;37.532;2023-02-15T05:53:41;99918.06;;;-2.00;61.43
75312;BME280;63906;55.686;37.532;2023-02-15T05:58:42;99946.88;;;-1.94;61.35
75312;BME280;63906;55.686;37.532;2023-02-15T06:03:42;99964.84;;;-1.92;62.01
75312;BME280;63906;55.686;37.532;2023-02-15T06:08:43;99936.88;;;-2.11;63.46
75312;BME280;63906;55.686;37.532;2023-02-15T06:13:44;99964.22;;;-1.83;61.27
75312;BME280;63906;55.686;37.532;2023-02-15T06:18:44;99965.53;;;-2.03;61.19
75312;BME280;63906;55.686;37.532;2023-02-15T06:23:45;99976.28;;;-1.96;61.02
75312;BME280;63906;55.686;37.532;2023-02-15T06:28:45;99949.75;;;-2.11;61.62
75312;BME280;63906;55.686;37.532;2023-02-15T06:33:46;99972.47;;;-2.03;61.54
75312;BME280;63906;55.686;37.532;2023-02-15T06:38:46;99949.84;;;-2.12;61.13
75312;BME280;63906;55.686;37.532;2023-02-15T06:43:47;99972.66;;;-2.06;62.03
75312;BME280;63906;55.686;37.532;2023-02-15T06:48:47;99993.28;;;-2.06;64.26
75312;BME280;63906;55.686;37.532;2023-02-15T06:53:48;99984.84;;;-1.96;61.38
75312;BME280;63906;55.686;37.532;2023-02-15T06:58:48;100004.25;;;-1.90;62.87
75312;BME280;63906;55.686;37.532;2023-02-15T07:03:52;99972.88;;;-1.84;62.42
75312;BME280;63906;55.686;37.532;2023-02-15T07:08:53;99993.25;;;-1.54;61.53
75312;BME280;63906;55.686;37.532;2023-02-15T07:13:54;99959.28;;;-1.86;61.76
75312;BME280;63906;55.686;37.532;2023-02-15T07:18:54;99977.75;;;-1.54;60.84
75312;BME280;63906;55.686;37.532;2023-02-15T07:23:58;99959.47;;;-1.76;60.99
75312;BME280;63906;55.686;37.532;2023-02-15T07:28:59;99985.09;;;-1.60;62.09
75312;BME280;63906;55.686;37.532;2023-02-15T07:33:59;99974.34;;;-1.54;62.51
75312;BME280;63906;55.686;37.532;2023-02-15T07:39:00;100000.97;;;-1.41;64.76
75312;BME280;63906;55.686;37.532;2023-02-15T07:44:01;99980.31;;;-1.41;62.36
75312;BME280;63906;55.686;37.532;2023-02-15T07:49:01;99969.50;;;-1.59;63.67
75312;BME280;63906;55.686;37.532;2023-02-15T07:54:02;100003.56;;;-1.28;63.05
75312;BME280;63906;55.686;37.532;2023-02-15T07:59:03;100012.94;;;-1.27;63.92
75312;BME280;63906;55.686;37.532;2023-02-15T08:04:06;99982.16;;;-1.56;63.59
75312;BME280;63906;55.686;37.532;2023-02-15T08:09:08;100009.44;;;-1.26;65.02
75312;BME280;63906;55.686;37.532;2023-02-15T08:14:11;100035.03;;;-1.11;63.17
75312;BME280;63906;55.686;37.532;2023-02-15T08:19:19;100028.09;;;-0.97;63.73
75312;BME280;63906;55.686;37.532;2023-02-15T08:24:21;99987.47;;;-0.95;60.97
75312;BME280;63906;55.686;37.532;2023-02-15T08:29:25;100014.06;;;-0.69;62.15
75312;BME280;63906;55.686;37.532;2023-02-15T08:34:45;100031.19;;;-0.56;61.79
75312;BME280;63906;55.686;37.532;2023-02-15T08:39:46;100034.75;;;-0.45;62.12
75312;BME280;63906;55.686;37.532;2023-02-15T08:44:46;100057.59;;;-0.39;59.93
75312;BME280;63906;55.686;37.532;2023-02-15T08:49:47;100033.72;;;-0.67;60.10
75312;BME280;63906;55.686;37.532;2023-02-15T08:54:47;100028.81;;;-0.95;59.55
75312;BME280;63906;55.686;37.532;2023-02-15T08:59:48;99992.91;;;-1.24;61.87
75312;BME280;63906;55.686;37.532;2023-02-15T09:04:51;100039.75;;;-0.92;62.67
75312;BME280;63906;55.686;37.532;2023-02-15T09:09:52;100048.91;;;-0.75;61.74
75312;BME280;63906;55.686;37.532;2023-02-15T09:14:53;100026.06;;;-0.68;60.68
75312;BME280;63906;55.686;37.532;2023-02-15T09:19:53;100043.13;;;-0.42;61.19
75312;BME280;63906;55.686;37.532;2023-02-15T09:24:54;100044.47;;;-0.12;56.76
75312;BME280;63906;55.686;37.532;2023-02-15T09:29:54;100023.28;;;-0.41;58.36
75312;BME280;63906;55.686;37.532;2023-02-15T09:34:55;100055.78;;;-0.50;58.08
75312;BME280;63906;55.686;37.532;2023-02-15T09:39:56;100041.97;;;-0.62;58.87
75312;BME280;63906;55.686;37.532;2023-02-15T10:11:26;100086.34;;;-0.68;59.36
75312;BME280;63906;55.686;37.532;2023-02-15T10:27:12;100073.81;;;-0.61;59.73
75312;BME280;63906;55.686;37.532;2023-02-15T10:32:22;100063.50;;;-0.74;59.04
75312;BME280;63906;55.686;37.532;2023-02-15T10:59:02;100127.56;;;-0.53;60.95
75312;BME280;63906;55.686;37.532;2023-02-15T11:09:59;100126.09;;;-0.45;59.85
75312;BME280;63906;55.686;37.532;2023-02-15T11:15:14;100120.00;;;-0.57;60.08
75312;BME280;63906;55.686;37.532;2023-02-15T11:20:28;100134.19;;;-0.49;60.95
75312;BME280;63906;55.686;37.532;2023-02-15T11:25:34;100122.69;;;-0.45;61.03
75312;BME280;63906;55.686;37.532;2023-02-15T11:30:43;100140.28;;;-0.50;61.72
75312;BME280;63906;55.686;37.532;2023-02-15T11:36:05;100147.75;;;-0.59;61.83
75312;BME280;63906;55.686;37.532;2023-02-15T11:41:14;100162.03;;;-0.66;62.04
75312;BME280;63906;55.686;37.532;2023-02-15T11:46:19;100150.34;;;-0.84;60.86
75312;BME280;63906;55.686;37.532;2023-02-15T11:51:22;100136.59;;;-0.97;61.52
75312;BME280;63906;55.686;37.532;2023-02-15T11:56:25;100155.63;;;-0.73;62.42
75312;BME280;63906;55.686;37.532;2023-02-15T12:01:54;100178.38;;;-0.78;62.18
75312;BME280;63906;55.686;37.532;2023-02-15T12:07:01;100172.88;;;-0.86;61.90
75312;BME280;63906;55.686;37.532;2023-02-15T12:12:42;100185.16;;;-1.02;62.58
75312;BME280;63906;55.686;37.532;2023-02-15T12:17:53;100109.19;;;-1.51;61.47
75312;BME280;63906;55.686;37.532;2023-02-15T12:23:00;100184.13;;;-1.13;61.47
75312;BME280;63906;55.686;37.532;2023-02-15T12:28:03;100168.72;;;-1.27;61.72
75312;BME280;63906;55.686;37.532;2023-02-15T12:33:46;100205.13;;;-1.04;62.63
75312;BME280;63906;55.686;37.532;2023-02-15T12:38:29;100200.97;;;-1.07;61.30
75312;BME280;63906;55.686;37.532;2023-02-15T12:43:36;100218.56;;;-0.99;60.67
75312;BME280;63906;55.686;37.532;2023-02-15T12:48:37;100190.72;;;-1.21;61.09
75312;BME280;63906;55.686;37.532;2023-02-15T12:53:37;100206.50;;;-1.26;60.71
75312;BME280;63906;55.686;37.532;2023-02-15T12:58:40;100219.63;;;-1.29;61.77
75312;BME280;63906;55.686;37.532;2023-02-15T13:04:24;100235.56;;;-1.22;61.91
75312;BME280;63906;55.686;37.532;2023-02-15T13:14:32;100239.38;;;-1.28;61.48
75312;BME280;63906;55.686;37.532;2023-02-15T13:19:37;100248.53;;;-1.37;62.47
75312;BME280;63906;55.686;37.532;2023-02-15T13:29:45;100252.81;;;-1.50;63.75
75312;BME280;63906;55.686;37.532;2023-02-15T13:34:46;100234.63;;;-1.61;63.93
75312;BME280;63906;55.686;37.532;2023-02-15T13:39:57;100207.94;;;-1.88;63.10
75312;BME280;63906;55.686;37.532;2023-02-15T13:51:02;100274.06;;;-1.32;62.92
75312;BME280;63906;55.686;37.532;2023-02-15T14:01:54;100283.34;;;-1.56;62.29
75312;BME280;63906;55.686;37.532;2023-02-15T14:18:31;100275.09;;;-1.76;62.66
75312;BME280;63906;55.686;37.532;2023-02-15T14:34:56;100278.44;;;-1.88;63.37
75312;BME280;63906;55.686;37.532;2023-02-15T14:40:08;100219.16;;;-2.31;64.21
75312;BME280;63906;55.686;37.532;2023-02-15T14:50:47;100276.22;;;-1.94;62.92
75312;BME280;63906;55.686;37.532;2023-02-15T15:01:12;100292.09;;;-2.00;62.70
75312;BME280;63906;55.686;37.532;2023-02-15T15:06:29;100314.56;;;-2.02;63.01
75312;BME280;63906;55.686;37.532;2023-02-15T15:11:44;100311.53;;;-1.95;63.39
75312;BME280;63906;55.686;37.532;2023-02-15T15:16:50;100317.72;;;-1.97;63.08
75312;BME280;63906;55.686;37.532;2023-02-15T15:21:52;100325.44;;;-1.83;62.43
75312;BME280;63906;55.686;37.532;2023-02-15T15:32:32;100323.88;;;-2.14;63.71
75312;BME280;63906;55.686;37.532;2023-02-15T15:48:41;100336.19;;;-2.19;62.39
75312;BME280;63906;55.686;37.532;2023-02-15T15:53:44;100378.13;;;-2.01;64.10
75312;BME280;63906;55.686;37.532;2023-02-15T15:58:54;100378.69;;;-1.96;63.13
75312;BME280;63906;55.686;37.532;2023-02-15T16:03:58;100382.00;;;-2.08;63.94
75312;BME280;63906;55.686;37.532;2023-02-15T16:09:21;100374.63;;;-2.14;63.72
75312;BME280;63906;55.686;37.532;2023-02-15T16:14:39;100384.69;;;-1.96;61.77
75312;BME280;63906;55.686;37.532;2023-02-15T16:19:41;100418.84;;;-2.06;62.66
75312;BME280;63906;55.686;37.532;2023-02-15T16:35:24;100412.84;;;-2.07;61.56
75312;BME280;63906;55.686;37.532;2023-02-15T16:45:29;100415.03;;;-2.29;63.44
75312;BME280;63906;55.686;37.532;2023-02-15T16:50:33;100416.25;;;-2.06;63.83
75312;BME280;63906;55.686;37.532;2023-02-15T16:55:38;100418.28;;;-2.11;64.01
75312;BME280;63906;55.686;37.532;2023-02-15T17:00:39;100414.97;;;-2.13;64.98
75312;BME280;63906;55.686;37.532;2023-02-15T17:05:47;100428.28;;;-1.91;63.98
75312;BME280;63906;55.686;37.532;2023-02-15T17:21:12;100385.44;;;-2.38;64.64
75312;BME280;63906;55.686;37.532;2023-02-15T17:26:32;100402.41;;;-2.34;64.92
75312;BME280;63906;55.686;37.532;2023-02-15T17:31:34;100427.59;;;-2.09;64.11
75312;BME280;63906;55.686;37.532;2023-02-15T17:36:34;100416.16;;;-2.19;64.67
75312;BME280;63906;55.686;37.532;2023-02-15T17:41:55;100416.25;;;-2.21;63.82
75312;BME280;63906;55.686;37.532;2023-02-15T17:46:55;100423.06;;;-2.05;62.42
75312;BME280;63906;55.686;37.532;2023-02-15T17:51:56;100403.81;;;-2.28;62.73
75312;BME280;63906;55.686;37.532;2023-02-15T17:56:58;100389.00;;;-2.10;62.29
75312;BME280;63906;55.686;37.532;2023-02-15T18:02:08;100403.91;;;-2.30;62.68
75312;BME280;63906;55.686;37.532;2023-02-15T18:07:29;100413.34;;;-2.30;64.38
75312;BME280;63906;55.686;37.532;2023-02-15T18:12:49;100430.22;;;-2.25;63.66
75312;BME280;63906;55.686;37.532;2023-02-15T18:17:49;100397.06;;;-2.31;63.60
75312;BME280;63906;55.686;37.532;2023-02-15T18:22:50;100412.75;;;-2.20;64.71
75312;BME280;63906;55.686;37.532;2023-02-15T18:27:51;100406.28;;;-2.27;64.87
75312;BME280;63906;55.686;37.532;2023-02-15T18:32:55;100415.50;;;-2.23;65.26
75312;BME280;63906;55.686;37.532;2023-02-15T18:37:56;100432.50;;;-1.90;62.74
75312;BME280;63906;55.686;37.532;2023-02-15T18:42:57;100416.97;;;-2.19;63.66
75312;BME280;63906;55.686;37.532;2023-02-15T18:47:58;100428.59;;;-2.11;63.16
75312;BME280;63906;55.686;37.532;2023-02-15T18:52:58;100406.84;;;-2.52;63.68
75312;BME280;63906;55.686;37.532;2023-02-15T18:57:59;100441.34;;;-2.24;64.67
75312;BME280;63906;55.686;37.532;2023-02-15T19:03:01;100436.50;;;-2.29;64.82
75312;BME280;63906;55.686;37.532;2023-02-15T19:08:02;100415.38;;;-2.35;64.93
75312;BME280;63906;55.686;37.532;2023-02-15T19:13:02;100421.88;;;-2.44;64.57
75312;BME280;63906;55.686;37.532;2023-02-15T19:18:06;100415.25;;;-2.48;65.18
75312;BME280;63906;55.686;37.532;2023-02-15T19:23:12;100420.06;;;-2.42;65.65
75312;BME280;63906;55.686;37.532;2023-02-15T19:28:18;100423.38;;;-2.40;65.96
75312;BME280;63906;55.686;37.532;2023-02-15T19:33:20;100424.69;;;-2.33;66.06
75312;BME280;63906;55.686;37.532;2023-02-15T19:38:29;100414.38;;;-2.33;65.66
75312;BME280;63906;55.686;37.532;2023-02-15T19:43:32;100429.69;;;-2.30;65.88
75312;BME280;63906;55.686;37.532;2023-02-15T19:48:34;100425.84;;;-2.38;65.38
75312;BME280;63906;55.686;37.532;2023-02-15T19:53:34;100429.38;;;-2.25;66.81
75312;BME280;63906;55.686;37.532;2023-02-15T19:58:35;100422.69;;;-2.28;66.62
75312;BME280;63906;55.686;37.532;2023-02-15T20:03:35;100417.78;;;-2.32;66.25
75312;BME280;63906;55.686;37.532;2023-02-15T20:08:36;100419.72;;;-2.36;65.81
75312;BME280;63906;55.686;37.532;2023-02-15T20:13:36;100404.09;;;-2.49;65.84
75312;BME280;63906;55.686;37.532;2023-02-15T20:18:37;100406.66;;;-2.49;66.44
75312;BME280;63906;55.686;37.532;2023-02-15T20:23:38;100392.91;;;-2.63;66.07
75312;BME280;63906;55.686;37.532;2023-02-15T20:28:39;100401.81;;;-2.69;66.32
75312;BME280;63906;55.686;37.532;2023-02-15T20:33:39;100410.94;;;-2.63;66.77
75312;BME280;63906;55.686;37.532;2023-02-15T20:38:40;100414.25;;;-2.61;66.87
75312;BME280;63906;55.686;37.532;2023-02-15T20:43:41;100394.78;;;-2.51;66.94
75312;BME280;63906;55.686;37.532;2023-02-15T20:48:42;100419.06;;;-2.55;67.04
75312;BME280;63906;55.686;37.532;2023-02-15T20:53:44;100391.28;;;-2.50;66.23
75312;BME280;63906;55.686;37.532;2023-02-15T20:58:46;100389.59;;;-2.65;67.51
75312;BME280;63906;55.686;37.532;2023-02-15T21:03:47;100387.38;;;-2.72;67.40
75312;BME280;63906;55.686;37.532;2023-02-15T21:08:48;100371.94;;;-2.87;67.32
75312;BME280;63906;55.686;37.532;2023-02-15T21:13:49;100340.59;;;-3.10;67.15
75312;BME280;63906;55.686;37.532;2023-02-15T21:18:50;100393.44;;;-2.73;67.57
75312;BME280;63906;55.686;37.532;2023-02-15T21:23:51;100416.28;;;-2.66;67.46
75312;BME280;63906;55.686;37.532;2023-02-15T21:28:52;100413.28;;;-2.59;67.23
75312;BME280;63906;55.686;37.532;2023-02-15T21:33:53;100412.88;;;-2.67;67.41
75312;BME280;63906;55.686;37.532;2023-02-15T21:38:53;100428.78;;;-2.45;66.84
75312;BME280;63906;55.686;37.532;2023-02-15T21:43:54;100427.09;;;-2.60;67.78
75312;BME280;63906;55.686;37.532;2023-02-15T21:49:13;100423.59;;;-2.75;68.02
75312;BME280;63906;55.686;37.532;2023-02-15T21:54:15;100428.16;;;-2.80;68.40
75312;BME280;63906;55.686;37.532;2023-02-15T21:59:17;100401.03;;;-3.01;68.51
75312;BME280;63906;55.686;37.532;2023-02-15T22:04:29;100392.56;;;-3.03;68.77
75312;BME280;63906;55.686;37.532;2023-02-15T22:09:32;100427.28;;;-2.79;69.17
75312;BME280;63906;55.686;37.532;2023-02-15T22:14:38;100425.19;;;-2.72;69.77
75312;BME280;63906;55.686;37.532;2023-02-15T22:19:39;100402.94;;;-2.89;69.74
75312;BME280;63906;55.686;37.532;2023-02-15T22:24:40;100413.38;;;-2.76;69.67
75312;BME280;63906;55.686;37.532;2023-02-15T22:29:41;100388.22;;;-2.87;69.92
75312;BME280;63906;55.686;37.532;2023-02-15T22:34:41;100419.50;;;-2.63;69.72
75312;BME280;63906;55.686;37.532;2023-02-15T22:39:42;100404.50;;;-2.71;69.28
75312;BME280;63906;55.686;37.532;2023-02-15T22:44:42;100421.09;;;-2.60;69.78
75312;BME280;63906;55.686;37.532;2023-02-15T22:49:43;100422.28;;;-2.66;70.10
75312;BME280;63906;55.686;37.532;2023-02-15T22:54:44;100422.78;;;-2.75;70.05
75312;BME280;63906;55.686;37.532;2023-02-15T22:59:45;100384.41;;;-2.95;70.62
75312;BME280;63906;55.686;37.532;2023-02-15T23:04:46;100420.69;;;-2.68;71.10
75312;BME280;63906;55.686;37.532;2023-02-15T23:09:47;100416.53;;;-2.71;71.02
75312;BME280;63906;55.686;37.532;2023-02-15T23:14:48;100416.22;;;-2.81;71.72
75312;BME280;63906;55.686;37.532;2023-02-15T23:19:48;100409.16;;;-2.93;71.55
75312;BME280;63906;55.686;37.532;2023-02-15T23:24:51;100404.19;;;-2.96;71.15
75312;BME280;63906;55.686;37.532;2023-02-15T23:29:52;100413.81;;;-2.84;71.50
75312;BME280;63906;55.686;37.532;2023-02-15T23:34:52;100404.78;;;-2.91;71.33
75312;BME280;63906;55.686;37.532;2023-02-15T23:39:53;100409.50;;;-2.83;71.12
75312;BME280;63906;55.686;37.532;2023-02-15T23:45:20;100406.53;;;-2.91;70.46
75312;BME280;63906;55.686;37.532;2023-02-15T23:50:24;100394.56;;;-3.08;70.74
75312;BME280;63906;55.686;37.532;2023-02-15T23:55:37;100404.53;;;-3.02;70.80
